Time;durP1;ratioP1;P1;durP2;ratioP2;P2;SDS_P1;SDS_P2;PMS_P1;PMS_P2;Temp;Humidity;BMP_temperature;BMP_pressure;BME280_temperature;BME280_humidity;BME280_pressure;Samples;Min_cycle;Max_cycle;Signal;HPM_P1;HPM_P2
2024/01/20 00:01:04;;;;;;;2.13;2.03;;;;;;;-1.65;90.44;96384.81;4323959;33;20212;-63
2024/01/20 00:03:29;;;;;;;2.00;1.90;;;;;;;-1.81;90.83;96396.31;4336803;32;20212;-65
2024/01/20 00:05:54;;;;;;;3.83;2.37;;;;;;;-1.67;90.84;96381.63;4333293;32;20197;-64
2024/01/20 00:08:20;;;;;;;1.83;1.73;;;;;;;-2.11;91.84;96380.09;4345641;32;20240;-63
2024/01/20 00:10:45;;;;;;;0.90;0.90;;;;;;;-1.94;91.77;96383.22;4343078;32;20193;-64
2024/01/20 00:13:11;;;;;;;1.10;1.10;;;;;;;-2.27;93.80;96385.53;4342944;32;20247;-64
2024/01/20 00:15:36;;;;;;;1.50;1.50;;;;;;;-2.30;93.77;96380.75;4329801;32;20189;-64
2024/01/20 00:18:03;;;;;;;1.97;1.87;;;;;;;-2.40;93.71;96386.25;4330597;32;20256;-64
2024/01/20 00:20:29;;;;;;;1.27;1.27;;;;;;;-2.38;93.44;96383.47;4346688;32;20190;-64
2024/01/20 00:22:54;;;;;;;1.40;1.30;;;;;;;-2.29;92.83;96383.16;4343331;32;20261;-63
2024/01/20 00:25:20;;;;;;;2.27;2.17;;;;;;;-2.31;92.77;96385.12;4329597;32;20273;-63
2024/01/20 00:27:46;;;;;;;1.45;1.35;;;;;;;-2.46;92.15;96377.38;4340701;32;20209;-64
2024/01/20 00:30:11;;;;;;;1.40;0.97;;;;;;;-2.62;92.29;96379.44;4332006;32;20243;-64
2024/01/20 00:32:37;;;;;;;1.80;1.70;;;;;;;-2.62;91.05;96374.22;4340140;32;20216;-64
2024/01/20 00:35:03;;;;;;;0.77;0.77;;;;;;;-2.79;90.91;96377.06;4329387;32;20186;-64
2024/01/20 00:37:29;;;;;;;0.90;0.90;;;;;;;-2.73;91.39;96385.12;4332458;32;20202;-64
2024/01/20 00:39:54;;;;;;;1.37;1.27;;;;;;;-2.93;90.86;96385.72;4317507;33;20220;-63
2024/01/20 00:42:20;;;;;;;0.73;0.73;;;;;;;-3.36;92.37;96386.56;4343810;32;20198;-64
2024/01/20 00:44:45;;;;;;;0.90;0.90;;;;;;;-3.23;92.71;96384.12;4338813;32;20185;-63
2024/01/20 00:47:10;;;;;;;0.77;0.57;;;;;;;-3.27;92.78;96386.28;4332175;32;20194;-63
2024/01/20 00:49:36;;;;;;;1.10;1.10;;;;;;;-3.35;92.86;96386.41;4344695;32;20185;-63
2024/01/20 00:52:01;;;;;;;0.53;0.53;;;;;;;-3.28;93.08;96381.28;4324869;32;20257;-63
2024/01/20 00:54:26;;;;;;;0.97;0.63;;;;;;;-3.36;92.54;96389.16;4322513;33;20217;-62
2024/01/20 00:56:52;;;;;;;0.80;0.80;;;;;;;-2.97;91.16;96381.06;4335959;32;20194;-62
2024/01/20 00:59:17;;;;;;;1.07;0.87;;;;;;;-2.92;89.78;96386.50;4343163;32;20240;-63
2024/01/20 01:01:42;;;;;;;1.83;1.33;;;;;;;-3.09;90.57;96385.09;4340095;32;20193;-63
2024/01/20 01:04:08;;;;;;;0.50;0.50;;;;;;;-3.26;91.95;96389.69;4344293;32;20249;-63
2024/01/20 01:06:33;;;;;;;0.83;0.83;;;;;;;-2.97;89.68;96384.47;4326752;32;20194;-63
2024/01/20 01:08:58;;;;;;;0.50;0.50;;;;;;;-2.80;88.90;96388.44;4345206;32;20193;-63
2024/01/20 01:11:24;;;;;;;0.13;0.13;;;;;;;-2.95;89.41;96387.69;4343242;32;20276;-63
2024/01/20 01:13:49;;;;;;;1.33;0.93;;;;;;;-3.13;90.23;96388.06;4331321;32;20261;-63
2024/01/20 01:16:14;;;;;;;1.50;0.97;;;;;;;-3.37;92.01;96387.56;4344668;32;20212;-63
2024/01/20 01:18:40;;;;;;;1.20;1.10;;;;;;;-3.30;92.06;96380.66;4338434;32;20193;-63
2024/01/20 01:21:06;;;;;;;0.52;0.52;;;;;;;-3.11;90.51;96374.88;4338169;32;20246;-63
2024/01/20 01:23:31;;;;;;;0.83;0.83;;;;;;;-3.03;90.14;96385.19;4342935;32;20177;-63
2024/01/20 01:25:56;;;;;;;1.23;0.90;;;;;;;-2.84;88.26;96374.22;4335248;32;20189;-62
2024/01/20 01:28:22;;;;;;;0.70;0.57;;;;;;;-2.60;87.39;96374.84;4343824;32;20189;-63
2024/01/20 01:30:48;;;;;;;0.33;0.33;;;;;;;-2.62;86.95;96367.25;4338906;32;20213;-63
2024/01/20 01:33:14;;;;;;;0.52;0.52;;;;;;;-2.75;87.76;96377.50;4330906;32;20193;-63
2024/01/20 01:35:39;;;;;;;1.13;1.07;;;;;;;-2.65;87.45;96369.41;4339405;32;20300;-62
2024/01/20 01:38:04;;;;;;;0.53;0.50;;;;;;;-2.58;87.22;96372.87;4342550;32;20212;-63
2024/01/20 01:40:30;;;;;;;0.57;0.57;;;;;;;-2.45;85.87;96373.00;4328516;32;20209;-63
2024/01/20 01:42:57;;;;;;;0.27;0.27;;;;;;;-2.73;85.98;96375.53;4334589;32;20211;-63
2024/01/20 01:45:25;;;;;;;0.35;0.35;;;;;;;-3.04;86.97;96367.19;4343885;32;20194;-63
2024/01/20 01:47:55;;;;;;;0.50;0.50;;;;;;;-3.42;89.72;96374.31;4337039;32;20197;-63
2024/01/20 01:50:21;;;;;;;0.70;0.35;;;;;;;-3.26;88.67;96372.31;4335555;32;20198;-63
2024/01/20 01:52:48;;;;;;;1.00;0.63;;;;;;;-3.21;89.28;96371.78;4330624;32;20311;-62
2024/01/20 01:55:15;;;;;;;3.83;1.00;;;;;;;-3.42;89.95;96375.13;4330736;32;20201;-63
2024/01/20 01:57:42;;;;;;;0.60;0.60;;;;;;;-3.39;89.65;96373.97;4308493;32;20217;-62
2024/01/20 02:00:08;;;;;;;1.27;1.17;;;;;;;-3.31;88.27;96377.25;4341605;32;20253;-63
2024/01/20 02:02:34;;;;;;;0.35;0.35;;;;;;;-3.31;88.41;96381.63;4317692;33;20212;-63
2024/01/20 02:04:59;;;;;;;0.43;0.43;;;;;;;-3.30;88.87;96373.66;4345900;32;20186;-64
2024/01/20 02:07:25;;;;;;;0.40;0.40;;;;;;;-3.30;88.54;96378.06;4326753;32;20272;-63
2024/01/20 02:09:50;;;;;;;0.10;0.10;;;;;;;-3.33;88.77;96378.44;4323301;32;20221;-63
2024/01/20 02:12:16;;;;;;;1.50;0.93;;;;;;;-3.26;87.65;96389.69;4334812;32;20205;-63
2024/01/20 02:14:42;;;;;;;0.30;0.30;;;;;;;-3.04;86.07;96378.38;4336375;33;20211;-63
2024/01/20 02:17:08;;;;;;;0.50;0.50;;;;;;;-2.82;85.35;96385.22;4345792;32;20193;-63
2024/01/20 02:19:37;;;;;;;0.53;0.53;;;;;;;-3.21;86.31;96388.16;4338854;33;20289;-63
2024/01/20 02:22:13;;;;;;;0.95;0.95;;;;;;;-3.38;87.65;96393.72;4342195;32;20216;-63
2024/01/20 02:24:39;;;;;;;0.10;0.10;;;;;;;-3.67;89.32;96387.53;4341718;32;20195;-62
2024/01/20 02:27:06;;;;;;;0.90;0.82;;;;;;;-3.75;89.77;96395.41;4330528;33;20197;-63
2024/01/20 02:29:31;;;;;;;0.57;0.57;;;;;;;-3.62;89.22;96392.19;4331423;33;20251;-63
2024/01/20 02:31:57;;;;;;;0.70;0.70;;;;;;;-3.96;89.55;96397.88;4334096;33;20190;-63
2024/01/20 02:34:22;;;;;;;1.70;1.60;;;;;;;-3.53;89.10;96396.28;4330413;32;20197;-62
2024/01/20 02:36:47;;;;;;;0.77;0.23;;;;;;;-3.70;89.54;96395.66;4332407;33;20205;-63
2024/01/20 02:39:13;;;;;;;0.27;0.27;;;;;;;-3.54;87.95;96398.13;4334906;32;20201;-63
2024/01/20 02:41:38;;;;;;;0.73;0.73;;;;;;;-3.12;86.45;96400.03;4335318;33;20237;-63
2024/01/20 02:44:05;;;;;;;0.10;0.10;;;;;;;-3.18;86.06;96410.34;4342457;33;20205;-63
2024/01/20 02:46:30;;;;;;;0.15;0.15;;;;;;;-3.07;85.80;96425.44;4341294;33;20270;-63
2024/01/20 02:48:55;;;;;;;0.30;0.30;;;;;;;-3.01;85.30;96435.09;4328515;33;20189;-62
2024/01/20 02:51:20;;;;;;;0.33;0.33;;;;;;;-3.04;83.93;96434.66;4342803;33;20189;-63
2024/01/20 02:53:46;;;;;;;0.97;0.80;;;;;;;-3.17;84.47;96435.31;4343721;32;20225;-63
2024/01/20 02:56:12;;;;;;;0.43;0.23;;;;;;;-3.05;84.93;96423.47;4321480;33;20216;-63
2024/01/20 02:58:37;;;;;;;0.32;0.32;;;;;;;-3.14;85.21;96415.00;4341838;33;20194;-63
2024/01/20 03:01:05;;;;;;;0.57;0.57;;;;;;;-2.97;85.04;96418.19;4343918;32;20197;-63
2024/01/20 03:03:31;;;;;;;0.35;0.35;;;;;;;-2.96;85.02;96408.63;4333804;32;20212;-63
2024/01/20 03:05:56;;;;;;;0.43;0.43;;;;;;;-3.22;86.37;96416.88;4321280;33;20233;-63
2024/01/20 03:08:21;;;;;;;0.40;0.40;;;;;;;-3.02;85.56;96411.94;4337342;33;20252;-63
2024/01/20 03:10:47;;;;;;;0.10;0.10;;;;;;;-2.96;85.10;96406.03;4323717;33;20218;-63
2024/01/20 03:13:12;;;;;;;0.70;0.70;;;;;;;-3.05;85.63;96413.09;4343975;32;20257;-63
2024/01/20 03:15:37;;;;;;;1.03;1.03;;;;;;;-3.55;88.33;96413.84;4342109;32;20243;-63
2024/01/20 03:18:03;;;;;;;0.40;0.40;;;;;;;-3.17;87.63;96411.97;4339440;32;20238;-63
2024/01/20 03:20:28;;;;;;;0.77;0.77;;;;;;;-3.00;85.74;96400.38;4345526;32;20217;-63
2024/01/20 03:22:54;;;;;;;0.43;0.43;;;;;;;-3.10;85.52;96405.03;4327028;32;20241;-63
2024/01/20 03:25:19;;;;;;;2.30;0.70;;;;;;;-3.67;88.03;96413.47;4331324;32;20423;-62
2024/01/20 03:27:44;;;;;;;0.20;0.20;;;;;;;-3.41;87.71;96412.22;4344661;32;20228;-63
2024/01/20 03:30:10;;;;;;;0.43;0.43;;;;;;;-3.38;88.47;96411.87;4345489;32;20247;-63
2024/01/20 03:32:35;;;;;;;0.37;0.37;;;;;;;-3.33;87.51;96410.37;4340016;32;20240;-63
2024/01/20 03:35:00;;;;;;;0.77;0.77;;;;;;;-3.03;86.63;96400.75;4338584;32;20240;-63
2024/01/20 03:37:26;;;;;;;0.40;0.40;;;;;;;-3.31;87.08;96412.75;4338225;32;20220;-62
2024/01/20 03:39:52;;;;;;;0.50;0.50;;;;;;;-3.36;87.79;96415.91;4323056;33;20189;-63
2024/01/20 03:42:18;;;;;;;0.10;0.10;;;;;;;-3.54;88.73;96424.03;4332237;32;20259;-63
2024/01/20 03:44:43;;;;;;;0.55;0.55;;;;;;;-3.61;88.33;96433.50;4344432;32;20239;-63
2024/01/20 03:47:09;;;;;;;0.47;0.47;;;;;;;-3.32;87.34;96437.06;4330221;32;20241;-62
2024/01/20 03:49:34;;;;;;;0.70;0.70;;;;;;;-3.20;86.49;96440.84;4331812;32;20202;-63
2024/01/20 03:51:59;;;;;;;0.77;0.77;;;;;;;-3.55;86.74;96435.41;4331067;32;20282;-64
2024/01/20 03:54:25;;;;;;;0.43;0.40;;;;;;;-3.33;86.70;96425.13;4346615;32;20190;-62
2024/01/20 03:56:50;;;;;;;0.90;0.90;;;;;;;-3.20;84.88;96436.47;4327312;32;20224;-63
2024/01/20 03:59:15;;;;;;;0.20;0.20;;;;;;;-3.72;87.30;96431.31;4345334;32;20201;-63
2024/01/20 04:01:41;;;;;;;0.50;0.50;;;;;;;-3.65;87.97;96429.66;4332241;32;20201;-63
2024/01/20 04:04:06;;;;;;;0.97;0.80;;;;;;;-3.31;85.96;96439.50;4331151;32;20197;-63
2024/01/20 04:06:32;;;;;;;2.50;0.70;;;;;;;-3.54;86.65;96442.19;4325859;32;20208;-62
2024/01/20 04:08:57;;;;;;;0.17;0.10;;;;;;;-3.99;88.09;96447.47;4345933;32;20194;-63
2024/01/20 04:11:23;;;;;;;2.77;0.50;;;;;;;-4.32;90.52;96447.69;4340864;32;20212;-63
2024/01/20 04:13:48;;;;;;;0.10;0.10;;;;;;;-4.24;90.45;96445.06;4345412;32;20245;-63
2024/01/20 04:16:13;;;;;;;0.73;0.73;;;;;;;-4.24;90.70;96445.06;4336633;32;20219;-63
2024/01/20 04:18:39;;;;;;;0.13;0.13;;;;;;;-4.12;90.61;96457.59;4345022;32;20267;-63
2024/01/20 04:21:04;;;;;;;0.53;0.53;;;;;;;-3.65;88.54;96452.97;4338018;32;20189;-63
2024/01/20 04:23:30;;;;;;;0.37;0.37;;;;;;;-3.62;87.41;96457.00;4327255;32;20205;-63
2024/01/20 04:25:55;;;;;;;0.70;0.30;;;;;;;-3.61;87.22;96469.78;4347914;32;20197;-62
2024/01/20 04:28:20;;;;;;;0.93;0.93;;;;;;;-3.72;87.43;96472.78;4332274;32;20212;-63
2024/01/20 04:30:46;;;;;;;0.40;0.40;;;;;;;-3.82;88.65;96474.84;4345409;32;20236;-63
2024/01/20 04:33:12;;;;;;;0.60;0.60;;;;;;;-3.86;87.36;96481.34;4344666;32;20296;-63
2024/01/20 04:35:37;;;;;;;1.60;0.87;;;;;;;-3.63;87.13;96478.72;4321462;33;20200;-63
2024/01/20 04:38:02;;;;;;;0.30;0.20;;;;;;;-3.56;86.06;96484.84;4322899;32;20198;-63
2024/01/20 04:40:28;;;;;;;1.40;1.30;;;;;;;-3.70;86.35;96490.78;4326658;32;20198;-63
2024/01/20 04:42:53;;;;;;;0.20;0.07;;;;;;;-3.72;87.42;96493.53;4326369;32;20296;-63
2024/01/20 04:45:19;;;;;;;0.00;0.00;;;;;;;-3.87;88.00;96500.47;4343532;32;20216;-63
2024/01/20 04:47:44;;;;;;;0.57;0.57;;;;;;;-3.90;88.23;96500.81;4342043;32;20204;-62
2024/01/20 04:50:10;;;;;;;0.67;0.40;;;;;;;-4.06;89.04;96501.75;4331805;32;20239;-62
2024/01/20 04:52:35;;;;;;;0.30;0.30;;;;;;;-4.77;91.68;96515.72;4345352;32;20219;-63
2024/01/20 04:55:00;;;;;;;0.20;0.20;;;;;;;-4.54;92.76;96514.00;4324307;32;20338;-63
2024/01/20 04:57:26;;;;;;;0.20;0.20;;;;;;;-4.37;92.60;96512.16;4339247;32;20209;-62
2024/01/20 04:59:51;;;;;;;0.47;0.47;;;;;;;-4.52;93.01;96511.25;4331714;32;20226;-62
2024/01/20 05:02:16;;;;;;;2.37;0.90;;;;;;;-4.34;91.82;96514.38;4341928;32;20241;-62
2024/01/20 05:04:42;;;;;;;0.33;0.33;;;;;;;-4.34;91.24;96514.38;4344567;32;20201;-63
2024/01/20 05:07:07;;;;;;;1.60;0.20;;;;;;;-4.61;91.87;96522.62;4331107;32;20248;-63
2024/01/20 05:09:32;;;;;;;0.33;0.10;;;;;;;-4.86;93.06;96522.72;4341392;32;20242;-62
2024/01/20 05:11:58;;;;;;;1.80;0.20;;;;;;;-5.08;95.36;96525.22;4343334;32;20193;-63
2024/01/20 05:14:23;;;;;;;0.10;0.10;;;;;;;-4.85;94.70;96526.94;4331424;32;20245;-62
2024/01/20 05:16:48;;;;;;;0.03;0.03;;;;;;;-4.71;93.79;96519.41;4331245;32;20189;-63
2024/01/20 05:19:14;;;;;;;2.20;0.30;;;;;;;-4.79;94.35;96525.47;4323688;33;20256;-63
2024/01/20 05:21:39;;;;;;;0.53;0.53;;;;;;;-4.80;94.42;96533.37;4337801;32;20243;-63
2024/01/20 05:24:05;;;;;;;0.57;0.40;;;;;;;-4.77;93.95;96528.66;4330888;32;20255;-62
2024/01/20 05:26:30;;;;;;;0.30;0.30;;;;;;;-4.26;92.88;96535.06;4333148;32;20243;-63
2024/01/20 05:28:56;;;;;;;0.10;0.10;;;;;;;-4.12;91.09;96528.31;4331991;32;20193;-63
2024/01/20 05:31:23;;;;;;;0.60;0.60;;;;;;;-3.93;90.30;96532.25;4330883;32;20215;-62
2024/01/20 05:33:48;;;;;;;0.20;0.20;;;;;;;-4.24;90.57;96535.69;4344406;32;20224;-62
2024/01/20 05:36:14;;;;;;;0.33;0.33;;;;;;;-4.48;92.10;96543.59;4344237;32;20185;-63
2024/01/20 05:38:39;;;;;;;0.77;0.77;;;;;;;-4.65;92.63;96548.03;4335561;32;20244;-62
2024/01/20 05:41:07;;;;;;;0.33;0.33;;;;;;;-4.69;92.39;96559.69;4331758;32;20248;-62
2024/01/20 05:43:32;;;;;;;0.40;0.40;;;;;;;-4.47;92.24;96558.16;4334230;32;20251;-63
2024/01/20 05:45:57;;;;;;;0.20;0.20;;;;;;;-4.39;91.94;96557.31;4336788;32;20234;-63
2024/01/20 05:48:23;;;;;;;0.70;0.30;;;;;;;-4.27;91.07;96561.13;4322025;32;20236;-62
2024/01/20 05:50:48;;;;;;;0.50;0.50;;;;;;;-4.58;90.81;96568.88;4344020;32;20208;-62
2024/01/20 05:53:13;;;;;;;0.10;0.10;;;;;;;-4.35;90.76;96561.97;4328234;32;20186;-63
2024/01/20 05:55:39;;;;;;;4.53;1.37;;;;;;;-4.34;91.05;96566.16;4326587;32;20193;-63
2024/01/20 05:58:04;;;;;;;0.00;0.00;;;;;;;-4.43;91.46;96569.78;4342553;32;20189;-62
2024/01/20 06:00:31;;;;;;;0.30;0.30;;;;;;;-4.52;91.36;96578.53;4330458;32;20220;-63
2024/01/20 06:02:56;;;;;;;0.68;0.45;;;;;;;-4.79;92.48;96584.16;4338538;32;20209;-63
2024/01/20 06:05:21;;;;;;;1.00;1.00;;;;;;;-4.67;92.80;96585.41;4340092;32;20200;-62
2024/01/20 06:07:47;;;;;;;0.10;0.10;;;;;;;-4.35;91.45;96580.09;4334867;32;20248;-63
2024/01/20 06:10:12;;;;;;;0.30;0.30;;;;;;;-4.73;91.52;96583.47;4316359;32;20240;-62
2024/01/20 06:12:38;;;;;;;0.10;0.10;;;;;;;-4.45;91.60;96583.88;4335884;32;20211;-63
2024/01/20 06:15:03;;;;;;;1.00;1.00;;;;;;;-4.45;90.92;96584.69;4330879;32;20189;-62
2024/01/20 06:17:29;;;;;;;0.10;0.10;;;;;;;-4.40;90.49;96584.19;4327938;33;20185;-63
2024/01/20 06:19:54;;;;;;;0.97;0.97;;;;;;;-4.23;89.18;96575.34;4338572;32;20209;-62
2024/01/20 06:22:20;;;;;;;0.07;0.07;;;;;;;-4.69;90.27;96582.97;4333761;32;20303;-62
2024/01/20 06:24:45;;;;;;;0.30;0.30;;;;;;;-4.63;90.87;96582.31;4328869;32;20236;-63
2024/01/20 06:27:11;;;;;;;0.13;0.13;;;;;;;-4.80;91.03;96585.94;4333972;32;20206;-63
2024/01/20 06:29:42;;;;;;;0.13;0.13;;;;;;;-4.71;91.67;96591.88;4337678;32;20238;-63
2024/01/20 06:32:08;;;;;;;0.10;0.10;;;;;;;-5.08;91.62;96597.62;4343302;32;20210;-63
2024/01/20 06:34:33;;;;;;;0.43;0.43;;;;;;;-4.95;92.17;96587.56;4341728;32;20197;-63
2024/01/20 06:36:58;;;;;;;1.07;1.07;;;;;;;-4.81;91.47;96584.31;4332561;33;20240;-62
2024/01/20 06:39:24;;;;;;;0.47;0.47;;;;;;;-5.06;91.88;96586.16;4339305;32;20201;-63
2024/01/20 06:41:50;;;;;;;0.10;0.10;;;;;;;-4.92;91.27;96580.28;4337632;32;20260;-63
2024/01/20 06:44:16;;;;;;;1.67;1.20;;;;;;;-4.84;91.09;96582.06;4329458;33;20198;-62
2024/01/20 06:46:42;;;;;;;0.20;0.20;;;;;;;-4.76;90.34;96582.03;4344933;32;20263;-63
2024/01/20 06:49:07;;;;;;;0.32;0.32;;;;;;;-5.09;90.43;96583.09;4328008;32;20194;-62
2024/01/20 06:51:33;;;;;;;0.00;0.00;;;;;;;-4.63;89.26;96576.34;4340539;32;20307;-63
2024/01/20 06:53:58;;;;;;;0.40;0.40;;;;;;;-4.70;88.94;96575.38;4346399;32;20217;-62
2024/01/20 06:56:24;;;;;;;0.23;0.23;;;;;;;-4.61;88.61;96580.38;4335918;32;20193;-62
2024/01/20 06:58:51;;;;;;;0.20;0.20;;;;;;;-4.40;87.71;96589.34;4345882;32;20208;-62
2024/01/20 07:01:17;;;;;;;1.42;1.33;;;;;;;-4.61;87.71;96592.50;4329883;33;20193;-62
2024/01/20 07:03:42;;;;;;;0.20;0.20;;;;;;;-4.22;87.19;96589.91;4329663;32;20212;-63
2024/01/20 07:06:08;;;;;;;0.20;0.20;;;;;;;-4.46;88.05;96590.03;4331208;32;20220;-62
2024/01/20 07:08:34;;;;;;;0.70;0.70;;;;;;;-4.33;87.44;96587.69;4331444;32;20205;-63
2024/01/20 07:10:59;;;;;;;0.40;0.30;;;;;;;-4.51;86.46;96593.09;4339641;32;20207;-62
2024/01/20 07:13:25;;;;;;;0.67;0.67;;;;;;;-4.40;85.39;96603.09;4342334;32;20300;-63
2024/01/20 07:15:50;;;;;;;0.55;0.55;;;;;;;-4.96;87.81;96604.88;4330290;33;20260;-62
2024/01/20 07:18:16;;;;;;;0.60;0.60;;;;;;;-5.06;88.68;96606.03;4339918;32;20213;-63
2024/01/20 07:20:41;;;;;;;0.23;0.23;;;;;;;-5.76;91.14;96608.31;4344911;32;20252;-62
2024/01/20 07:23:07;;;;;;;0.20;0.20;;;;;;;-6.47;94.04;96622.53;4346503;32;20232;-63
2024/01/20 07:25:36;;;;;;;0.63;0.37;;;;;;;-6.47;95.65;96613.97;4332191;32;20220;-62
2024/01/20 07:28:02;;;;;;;0.20;0.20;;;;;;;-5.87;94.17;96617.19;4347610;32;20193;-63
2024/01/20 07:30:27;;;;;;;0.53;0.53;;;;;;;-5.72;91.25;96615.56;4342782;32;20240;-63
2024/01/20 07:32:52;;;;;;;0.40;0.40;;;;;;;-5.92;91.11;96619.44;4331822;32;20275;-63
2024/01/20 07:35:18;;;;;;;0.40;0.40;;;;;;;-6.30;92.21;96624.19;4337325;32;20205;-63
2024/01/20 07:37:43;;;;;;;0.77;0.77;;;;;;;-5.88;92.01;96635.44;4324837;32;20197;-62
2024/01/20 07:40:09;;;;;;;0.60;0.60;;;;;;;-5.47;89.87;96623.34;4332502;32;20254;-63
2024/01/20 07:42:35;;;;;;;0.73;0.73;;;;;;;-5.55;89.20;96637.88;4332184;32;20198;-63
2024/01/20 07:45:01;;;;;;;0.40;0.40;;;;;;;-5.39;89.46;96628.50;4331171;32;20209;-63
2024/01/20 07:47:26;;;;;;;0.20;0.20;;;;;;;-5.14;87.76;96640.47;4340392;32;20189;-62
2024/01/20 07:49:52;;;;;;;0.27;0.27;;;;;;;-5.25;88.00;96639.03;4324014;32;20212;-62
2024/01/20 07:52:17;;;;;;;0.60;0.60;;;;;;;-5.11;87.38;96637.56;4325221;32;20194;-62
2024/01/20 07:54:42;;;;;;;0.30;0.30;;;;;;;-5.02;87.00;96634.00;4329608;32;20197;-62
2024/01/20 07:57:08;;;;;;;0.53;0.53;;;;;;;-5.27;88.11;96640.16;4331300;32;20221;-62
2024/01/20 07:59:33;;;;;;;0.40;0.40;;;;;;;-4.71;86.79;96631.50;4331776;32;20238;-63
2024/01/20 08:01:58;;;;;;;0.47;0.30;;;;;;;-4.55;85.23;96631.44;4344062;32;20193;-63
2024/01/20 08:04:24;;;;;;;0.57;0.57;;;;;;;-4.32;84.23;96636.72;4346300;32;20207;-63
2024/01/20 08:06:49;;;;;;;0.70;0.70;;;;;;;-4.50;84.02;96639.53;4327873;32;23833;-63
2024/01/20 08:09:15;;;;;;;2.10;0.83;;;;;;;-4.67;85.28;96643.16;4329907;32;20235;-63
2024/01/20 08:11:40;;;;;;;0.23;0.23;;;;;;;-4.48;85.61;96636.78;4329259;32;20295;-63
2024/01/20 08:14:05;;;;;;;0.50;0.50;;;;;;;-4.26;83.72;96637.84;4328188;32;20236;-63
2024/01/20 08:16:31;;;;;;;0.33;0.30;;;;;;;-4.69;85.30;96649.47;4339034;32;20198;-63
2024/01/20 08:18:56;;;;;;;0.23;0.23;;;;;;;-4.43;84.53;96651.81;4338951;32;20193;-63
2024/01/20 08:21:22;;;;;;;0.53;0.43;;;;;;;-4.26;84.02;96655.97;4339131;32;20193;-63
2024/01/20 08:23:47;;;;;;;0.40;0.30;;;;;;;-4.23;83.71;96659.03;4333425;32;20196;-63
2024/01/20 08:26:12;;;;;;;0.20;0.20;;;;;;;-4.25;84.32;96660.97;4333046;32;20221;-63
2024/01/20 08:28:38;;;;;;;0.43;0.43;;;;;;;-4.52;85.47;96666.56;4347208;32;20209;-63
2024/01/20 08:31:03;;;;;;;0.37;0.27;;;;;;;-4.63;85.96;96670.31;4322079;33;20224;-63
2024/01/20 08:33:28;;;;;;;0.50;0.50;;;;;;;-4.41;85.92;96666.22;4333397;32;20236;-63
2024/01/20 08:35:54;;;;;;;1.90;1.20;;;;;;;-4.55;86.29;96672.06;4330765;32;20185;-63
2024/01/20 08:38:19;;;;;;;0.60;0.53;;;;;;;-4.48;85.92;96674.81;4344630;32;20203;-63
2024/01/20 08:40:44;;;;;;;0.07;0.07;;;;;;;-4.36;86.00;96663.91;4332452;32;20198;-63
2024/01/20 08:43:10;;;;;;;0.47;0.47;;;;;;;-4.57;86.47;96674.81;4339609;32;20197;-63
2024/01/20 08:45:35;;;;;;;0.20;0.20;;;;;;;-4.83;88.00;96673.44;4344841;32;20201;-63
2024/01/20 08:48:00;;;;;;;0.30;0.30;;;;;;;-4.65;87.48;96685.19;4344036;32;20216;-64
2024/01/20 08:50:26;;;;;;;0.30;0.30;;;;;;;-4.25;86.23;96683.47;4333723;32;20202;-64
2024/01/20 08:52:51;;;;;;;0.40;0.40;;;;;;;-4.02;85.62;96683.56;4342200;32;20256;-64
2024/01/20 08:55:17;;;;;;;0.30;0.30;;;;;;;-3.96;85.48;96682.91;4331923;32;20259;-64
2024/01/20 08:57:42;;;;;;;0.40;0.40;;;;;;;-4.06;86.67;96688.25;4336203;32;20213;-64
2024/01/20 09:00:09;;;;;;;0.17;0.17;;;;;;;-4.48;87.65;96688.56;4340002;32;20205;-63
2024/01/20 09:02:34;;;;;;;0.28;0.28;;;;;;;-4.01;87.25;96695.53;4344018;32;20201;-64
2024/01/20 09:05:00;;;;;;;0.57;0.57;;;;;;;-4.08;86.62;96689.41;4333125;32;20252;-64
2024/01/20 09:07:25;;;;;;;0.73;0.73;;;;;;;-3.74;85.00;96702.06;4328815;32;20207;-63
2024/01/20 09:09:52;;;;;;;0.53;0.53;;;;;;;-3.83;84.70;96703.88;4327428;32;20211;-63
2024/01/20 09:12:18;;;;;;;0.35;0.35;;;;;;;-3.71;85.19;96706.88;4329264;32;20185;-64
2024/01/20 09:14:43;;;;;;;0.40;0.40;;;;;;;-3.60;85.51;96717.69;4326374;32;20216;-63
2024/01/20 09:17:08;;;;;;;0.60;0.43;;;;;;;-3.43;83.78;96720.19;4335134;32;20189;-63
2024/01/20 09:19:34;;;;;;;0.93;0.93;;;;;;;-3.70;85.48;96716.28;4325417;33;20208;-64
2024/01/20 09:21:59;;;;;;;0.70;0.70;;;;;;;-3.33;84.68;96715.63;4338495;32;20257;-64
2024/01/20 09:24:24;;;;;;;0.40;0.40;;;;;;;-3.43;85.21;96720.19;4342514;32;20189;-63
2024/01/20 09:26:50;;;;;;;0.30;0.30;;;;;;;-3.08;84.44;96708.44;4330157;32;20281;-64
2024/01/20 09:29:15;;;;;;;0.70;0.70;;;;;;;-3.20;83.81;96723.63;4336566;32;20194;-64
2024/01/20 09:31:40;;;;;;;1.13;1.13;;;;;;;-3.19;85.07;96718.25;4329906;32;20338;-64
2024/01/20 09:34:06;;;;;;;0.63;0.63;;;;;;;-2.68;83.06;96721.09;4330159;32;20223;-63
2024/01/20 09:36:31;;;;;;;0.20;0.20;;;;;;;-2.68;82.93;96720.28;4324788;32;20185;-64
2024/01/20 09:38:56;;;;;;;0.80;0.63;;;;;;;-2.66;81.87;96715.72;4325586;32;20224;-63
2024/01/20 09:41:23;;;;;;;0.53;0.53;;;;;;;-2.66;82.55;96713.94;4343152;32;20243;-63
2024/01/20 09:43:49;;;;;;;0.25;0.25;;;;;;;-2.75;82.75;96716.81;4343151;32;20188;-63
2024/01/20 09:46:15;;;;;;;0.63;0.63;;;;;;;-2.70;82.85;96711.91;4322223;33;20208;-64
2024/01/20 09:48:43;;;;;;;0.57;0.57;;;;;;;-2.66;82.20;96713.12;4329804;32;20197;-64
2024/01/20 09:51:08;;;;;;;0.43;0.43;;;;;;;-2.46;82.02;96712.44;4334643;32;20219;-63
2024/01/20 09:53:35;;;;;;;0.93;0.80;;;;;;;-2.41;81.79;96717.13;4341718;32;20189;-64
2024/01/20 09:56:00;;;;;;;2.12;0.82;;;;;;;-2.25;82.31;96716.16;4329557;32;20190;-64
2024/01/20 09:58:27;;;;;;;0.83;0.83;;;;;;;-2.26;81.36;96714.53;4340493;32;20193;-64
2024/01/20 10:00:54;;;;;;;0.50;0.40;;;;;;;-2.30;82.10;96724.50;4338603;32;20220;-64
2024/01/20 10:03:24;;;;;;;0.95;0.95;;;;;;;-2.19;81.01;96705.84;4317489;32;20252;-64
2024/01/20 10:05:52;;;;;;;0.75;0.75;;;;;;;-1.93;80.31;96713.22;4320664;32;20193;-63
2024/01/20 10:08:17;;;;;;;0.77;0.77;;;;;;;-1.75;79.25;96718.84;4332029;32;20262;-64
2024/01/20 10:10:43;;;;;;;1.07;1.07;;;;;;;-1.85;78.84;96712.28;4326160;32;20205;-64
2024/01/20 10:13:08;;;;;;;2.20;0.83;;;;;;;-1.70;79.35;96714.88;4326790;32;20193;-64
2024/01/20 10:15:33;;;;;;;0.40;0.40;;;;;;;-1.80;80.66;96715.97;4316273;32;20247;-63
2024/01/20 10:17:59;;;;;;;0.30;0.30;;;;;;;-1.68;79.66;96718.13;4333045;32;20182;-64
2024/01/20 10:20:31;;;;;;;0.73;0.73;;;;;;;-1.68;81.10;96718.13;4316027;32;20190;-64
2024/01/20 10:22:59;;;;;;;0.73;0.73;;;;;;;-1.41;79.05;96715.63;4318723;33;20294;-64
2024/01/20 10:25:25;;;;;;;0.77;0.77;;;;;;;-1.15;77.67;96709.09;4318015;33;20236;-64
2024/01/20 10:27:50;;;;;;;0.93;0.93;;;;;;;-0.99;75.51;96708.84;4332535;32;20257;-64
2024/01/20 10:30:24;;;;;;;1.47;0.93;;;;;;;-0.94;75.02;96708.28;4334171;32;20193;-64
2024/01/20 10:32:51;;;;;;;0.75;0.75;;;;;;;-0.80;74.18;96708.19;4329411;32;20205;-64
2024/01/20 10:35:17;;;;;;;0.93;0.93;;;;;;;-0.75;64.00;96699.81;4339509;32;20223;-64
2024/01/20 10:37:44;;;;;;;0.70;0.70;;;;;;;-0.41;62.79;96706.88;4338655;32;20193;-64
2024/01/20 10:40:13;;;;;;;1.25;1.15;;;;;;;-0.26;62.77;96707.63;4334550;32;20201;-64
2024/01/20 10:42:45;;;;;;;0.75;0.75;;;;;;;-0.40;65.14;96704.09;4325145;32;20185;-63
2024/01/20 10:45:18;;;;;;;1.48;1.37;;;;;;;-0.31;63.48;96702.16;4342326;32;20190;-63
2024/01/20 10:48:15;;;;;;;0.77;0.77;;;;;;;-0.09;62.92;96706.31;4332990;32;20189;-64
2024/01/20 10:50:46;;;;;;;9.38;2.35;;;;;;;-0.04;61.78;96703.94;4322105;32;20208;-64
2024/01/20 10:53:11;;;;;;;34.83;2.23;;;;;;;6.74;100.00;96674.56;4323388;32;20249;-64
2024/01/20 10:55:40;;;;;;;0.70;0.70;;;;;;;9.55;91.14;96673.62;4326831;32;20356;-62
2024/01/20 10:58:08;;;;;;;2.10;1.00;;;;;;;11.00;51.77;96669.38;4340113;32;20237;-61
2024/01/20 11:00:36;;;;;;;0.63;0.63;;;;;;;12.53;41.85;96669.28;4343937;32;20293;-62
2024/01/20 11:03:03;;;;;;;1.37;0.70;;;;;;;13.05;40.23;96676.78;4341322;32;20345;-61
2024/01/20 11:05:28;;;;;;;1.30;1.07;;;;;;;13.20;38.83;96694.56;4342772;32;20197;-62
2024/01/20 11:08:06;;;;;;;0.50;0.50;;;;;;;13.28;37.82;96691.34;4330364;32;20212;-62
2024/01/20 11:10:45;;;;;;;0.73;0.73;;;;;;;13.11;37.38;96680.19;4343258;32;20181;-61
2024/01/20 11:13:16;;;;;;;0.60;0.60;;;;;;;12.90;36.94;96682.97;4335139;32;20193;-62
2024/01/20 11:15:41;;;;;;;0.50;0.50;;;;;;;12.91;36.32;96681.09;4325857;32;20194;-62
2024/01/20 11:18:20;;;;;;;0.83;0.83;;;;;;;12.81;35.88;96679.28;4342185;32;20189;-61
2024/01/20 11:21:00;;;;;;;10.63;1.27;;;;;;;12.73;36.42;96679.84;4332924;32;20185;-62
2024/01/20 11:23:26;;;;;;;1.60;0.60;;;;;;;12.53;35.97;96671.94;4327397;32;20314;-62
2024/01/20 11:25:52;;;;;;;0.70;0.70;;;;;;;12.42;35.18;96673.84;4330040;32;20201;-62
2024/01/20 11:28:35;;;;;;;0.83;0.83;;;;;;;12.32;35.20;96669.34;4326584;32;20214;-62